createdAt,value
2023-02-22T00:01:22.080Z,101029.61
2023-02-22T00:05:31.629Z,101035.24
2023-02-22T00:09:41.063Z,101037.43
2023-02-22T00:13:50.626Z,101036.91
2023-02-22T00:18:00.149Z,101036.72
2023-02-22T00:21:49.507Z,101033.61
2023-02-22T00:25:58.940Z,101041.33
2023-02-22T00:29:43.441Z,101043.41
2023-02-22T00:33:53.014Z,101045.30
2023-02-22T00:38:02.359Z,101044.77
2023-02-22T00:42:04.735Z,101040.13
2023-02-22T00:46:12.921Z,101044.10
2023-02-22T00:50:22.703Z,101051.51
2023-02-22T00:54:16.043Z,101056.48
2023-02-22T00:58:25.404Z,101058.02
2023-02-22T01:02:23.660Z,101057.16
2023-02-22T01:06:25.074Z,101057.33
2023-02-22T01:10:34.700Z,101059.05
2023-02-22T01:14:44.254Z,101062.66
2023-02-22T01:18:53.917Z,101067.63
2023-02-22T01:22:48.156Z,101073.97
2023-02-22T01:26:57.621Z,101077.92
2023-02-22T01:31:07.420Z,101078.59
2023-02-22T01:35:17.051Z,101083.77
2023-02-22T01:39:26.715Z,101091.33
2023-02-22T01:43:36.254Z,101091.84
2023-02-22T01:47:45.736Z,101094.77
2023-02-22T01:51:58.242Z,101094.06
2023-02-22T01:55:51.301Z,101092.35
2023-02-22T02:00:00.659Z,101093.90
2023-02-22T02:04:02.506Z,101094.42
2023-02-22T02:08:12.011Z,101091.48
2023-02-22T02:12:21.651Z,101087.20
2023-02-22T02:16:31.241Z,101084.11
2023-02-22T02:20:46.476Z,101080.66
2023-02-22T02:25:00.579Z,101084.12
2023-02-22T02:29:34.566Z,101090.33
2023-02-22T02:33:59.205Z,101088.93
2023-02-22T02:38:05.884Z,101097.17
2023-02-22T02:42:18.367Z,101097.48
2023-02-22T02:46:24.885Z,101098.66
2023-02-22T02:50:52.763Z,101097.58
2023-02-22T02:55:02.122Z,101099.40
2023-02-22T02:58:51.301Z,101096.60
2023-02-22T03:03:03.796Z,101106.70
2023-02-22T03:07:22.358Z,101106.35
2023-02-22T03:11:26.825Z,101109.80
2023-02-22T03:15:54.458Z,101114.80
2023-02-22T03:20:18.900Z,101110.84
2023-02-22T03:24:46.760Z,101114.81
2023-02-22T03:28:56.280Z,101121.98
2023-02-22T03:33:05.962Z,101125.86
2023-02-22T03:37:11.702Z,101130.60
2023-02-22T03:41:21.272Z,101139.46
2023-02-22T03:45:30.720Z,101143.56
2023-02-22T03:50:04.341Z,101151.19
2023-02-22T03:53:42.651Z,101147.56
2023-02-22T03:57:55.324Z,101148.30
2023-02-22T04:02:01.067Z,101151.05
2023-02-22T04:06:10.676Z,101151.52
2023-02-22T04:10:19.961Z,101152.13
2023-02-22T04:14:29.755Z,101157.73
2023-02-22T04:18:39.020Z,101159.08
2023-02-22T04:22:48.595Z,101167.59
2023-02-22T04:26:58.269Z,101170.98
2023-02-22T04:31:07.937Z,101171.48
2023-02-22T04:35:17.484Z,101176.63
2023-02-22T04:39:17.293Z,101175.34
2023-02-22T04:54:35.570Z,101178.97
2023-02-22T04:58:13.267Z,101181.13
2023-02-22T05:02:22.711Z,101180.02
2023-02-22T05:06:15.331Z,101184.58
2023-02-22T05:10:08.400Z,101180.95
2023-02-22T05:13:44.804Z,101177.29
2023-02-22T05:17:53.282Z,101180.94
2023-02-22T05:22:02.820Z,101190.88
2023-02-22T05:26:04.070Z,101191.07
2023-02-22T05:30:03.971Z,101188.50
2023-02-22T05:33:36.346Z,101191.33
2023-02-22T05:37:35.097Z,101193.21
2023-02-22T05:41:20.754Z,101198.67
2023-02-22T05:45:23.841Z,101198.62
2023-02-22T05:49:23.971Z,101204.27
2023-02-22T05:53:33.431Z,101208.20
2023-02-22T05:57:42.767Z,101210.92
2023-02-22T06:01:18.004Z,101213.27
2023-02-22T06:04:47.458Z,101216.61
2023-02-22T06:08:58.406Z,101219.42
2023-02-22T06:12:57.846Z,101226.52
2023-02-22T06:16:54.522Z,101231.54
2023-02-22T06:21:04.152Z,101237.74
2023-02-22T06:25:13.815Z,101237.48
2023-02-22T06:29:23.306Z,101240.63
2023-02-22T06:33:33.010Z,101246.91
2023-02-22T06:37:30.048Z,101254.18
2023-02-22T06:41:39.610Z,101257.28
2023-02-22T06:45:49.574Z,101254.25
2023-02-22T06:49:59.168Z,101259.96
2023-02-22T06:54:08.438Z,101263.43
2023-02-22T06:58:00.939Z,101263.46
2023-02-22T07:01:55.678Z,101275.52
2023-02-22T07:05:58.152Z,101282.76
2023-02-22T07:10:07.692Z,101286.42
2023-02-22T07:14:06.094Z,101293.00
2023-02-22T07:17:35.099Z,101290.77
2023-02-22T07:21:44.881Z,101294.61
2023-02-22T07:25:54.295Z,101294.52
2023-02-22T07:30:03.807Z,101297.66
2023-02-22T07:34:12.392Z,101296.27
2023-02-22T07:37:35.835Z,101300.23
2023-02-22T07:41:45.041Z,101305.77
2023-02-22T07:45:49.762Z,101310.96
2023-02-22T07:49:59.237Z,101317.88
2023-02-22T07:54:08.770Z,101325.62
2023-02-22T07:58:18.161Z,101323.87
2023-02-22T08:02:27.786Z,101325.89
2023-02-22T08:06:00.289Z,101320.89
2023-02-22T08:10:10.013Z,101323.33
2023-02-22T08:13:47.891Z,101322.79
2023-02-22T08:17:02.226Z,101324.48
2023-02-22T08:21:11.830Z,101332.75
2023-02-22T08:25:21.469Z,101332.75
2023-02-22T08:29:29.953Z,101331.89
2023-02-22T08:33:39.684Z,101322.95
2023-02-22T08:37:49.237Z,101323.67
2023-02-22T08:41:47.438Z,101325.77
2023-02-22T08:45:57.822Z,101323.59
2023-02-22T08:50:07.583Z,101326.38
2023-02-22T08:54:16.777Z,101330.71
2023-02-22T08:58:26.391Z,101330.42
2023-02-22T09:02:35.799Z,101328.85
2023-02-22T09:06:45.881Z,101330.92
2023-02-22T09:10:48.082Z,101332.27
2023-02-22T09:14:56.955Z,101339.54
2023-02-22T09:19:06.337Z,101345.67
2023-02-22T09:23:15.820Z,101349.42
2023-02-22T09:27:24.959Z,101342.55
2023-02-22T09:31:34.470Z,101344.75
2023-02-22T09:35:32.565Z,101345.86
2023-02-22T09:39:05.283Z,101345.89
2023-02-22T09:43:17.548Z,101351.72
2023-02-22T09:47:30.261Z,101356.23
2023-02-22T09:51:33.455Z,101362.77
2023-02-22T09:55:48.706Z,101362.11
2023-02-22T09:59:40.414Z,101362.95
2023-02-22T10:03:56.020Z,101361.73
2023-02-22T10:07:50.625Z,101366.52
2023-02-22T10:12:27.666Z,101375.86
2023-02-22T10:16:36.867Z,101377.63
2023-02-22T10:21:01.848Z,101381.64
2023-02-22T10:25:15.924Z,101385.77
2023-02-22T10:29:28.403Z,101387.88
2023-02-22T10:33:55.958Z,101382.08
2023-02-22T10:38:08.344Z,101384.89
2023-02-22T10:42:12.053Z,101385.92
2023-02-22T10:46:19.948Z,101383.68
2023-02-22T10:50:19.885Z,101383.19
2023-02-22T10:54:18.027Z,101383.02
2023-02-22T10:58:33.706Z,101384.55
2023-02-22T11:02:39.527Z,101387.70
2023-02-22T11:07:01.179Z,101388.80
2023-02-22T11:10:53.740Z,101384.77
2023-02-22T11:15:07.839Z,101383.80
2023-02-22T11:18:57.238Z,101385.78
2023-02-22T11:23:05.428Z,101387.70
2023-02-22T11:27:17.437Z,101388.23
2023-02-22T11:31:02.907Z,101389.09
2023-02-22T11:35:14.602Z,101389.70
2023-02-22T11:39:05.813Z,101390.20
2023-02-22T11:43:02.071Z,101389.52
2023-02-22T11:47:07.288Z,101386.42
2023-02-22T11:51:19.973Z,101393.19
2023-02-22T11:55:44.776Z,101394.88
2023-02-22T12:00:15.644Z,101394.17
2023-02-22T12:04:24.856Z,101399.52
2023-02-22T12:08:41.498Z,101395.80
2023-02-22T12:12:57.112Z,101397.02
2023-02-22T12:17:11.545Z,101394.13
2023-02-22T12:21:00.984Z,101397.58
2023-02-22T12:25:10.839Z,101399.30
2023-02-22T12:29:35.423Z,101401.27
2023-02-22T12:33:47.851Z,101397.68
2023-02-22T12:38:00.696Z,101396.63
2023-02-22T12:41:54.154Z,101397.34
2023-02-22T12:46:04.092Z,101397.30
2023-02-22T12:50:16.384Z,101398.61
2023-02-22T12:54:35.104Z,101400.86
2023-02-22T12:58:55.552Z,101404.11
2023-02-22T13:03:09.640Z,101400.64
2023-02-22T13:07:04.968Z,101403.88
2023-02-22T13:11:38.493Z,101403.33
2023-02-22T13:15:32.811Z,101403.84
2023-02-22T13:19:43.197Z,101407.60
2023-02-22T13:24:20.411Z,101408.15
2023-02-22T13:28:46.524Z,101412.80
2023-02-22T13:32:32.825Z,101414.28
2023-02-22T13:35:59.740Z,101414.58
2023-02-22T13:39:58.209Z,101416.44
2023-02-22T13:43:13.756Z,101418.86
2023-02-22T13:47:30.995Z,101422.14
2023-02-22T13:51:43.313Z,101421.06
2023-02-22T13:55:36.856Z,101417.73
2023-02-22T13:59:07.153Z,101419.06
2023-02-22T14:03:15.419Z,101420.09
2023-02-22T14:07:17.129Z,101422.20
2023-02-22T14:11:24.345Z,101420.75
2023-02-22T14:15:30.192Z,101421.97
2023-02-22T14:19:22.700Z,101422.40
2023-02-22T14:22:47.672Z,101430.58
2023-02-22T14:27:03.729Z,101425.02
2023-02-22T14:31:17.429Z,101422.29
2023-02-22T14:35:47.891Z,101423.38
2023-02-22T14:39:49.393Z,101419.83
2023-02-22T14:44:03.220Z,101418.30
2023-02-22T14:48:11.026Z,101418.47
2023-02-22T14:52:12.211Z,101417.67
2023-02-22T14:56:04.518Z,101417.38
2023-02-22T14:59:59.876Z,101422.88
2023-02-22T15:04:07.105Z,101418.18
2023-02-22T15:08:28.586Z,101415.03
2023-02-22T15:12:33.786Z,101411.55
2023-02-22T15:16:09.819Z,101408.63
2023-02-22T15:20:13.671Z,101413.42
2023-02-22T15:24:25.962Z,101415.15
2023-02-22T15:28:35.716Z,101418.41
2023-02-22T15:31:56.520Z,101418.77
2023-02-22T15:35:28.615Z,101416.02
2023-02-22T15:39:38.192Z,101422.68
2023-02-22T15:43:14.972Z,101424.36
2023-02-22T15:46:57.672Z,101426.60
2023-02-22T15:51:13.158Z,101428.83
2023-02-22T15:54:48.525Z,101434.42
2023-02-22T15:58:38.421Z,101436.77
2023-02-22T16:02:20.711Z,101434.44
2023-02-22T16:06:32.540Z,101432.66
2023-02-22T16:10:40.964Z,101434.80
2023-02-22T16:14:33.526Z,101442.29
2023-02-22T16:18:01.602Z,101439.86
2023-02-22T16:21:46.051Z,101442.42
2023-02-22T16:25:58.256Z,101450.90
2023-02-22T16:30:18.673Z,101458.98
2023-02-22T16:34:28.470Z,101461.18
2023-02-22T16:38:30.892Z,101462.59
2023-02-22T16:42:17.216Z,101461.93
2023-02-22T16:46:53.811Z,101465.98
2023-02-22T16:50:43.576Z,101466.80
2023-02-22T16:54:56.228Z,101465.59
2023-02-22T16:58:45.591Z,101467.17
2023-02-22T17:02:55.040Z,101466.98
2023-02-22T17:07:05.409Z,101470.27
2023-02-22T17:11:14.893Z,101473.52
2023-02-22T17:15:04.491Z,101473.04
2023-02-22T17:18:53.539Z,101467.05
2023-02-22T17:22:55.255Z,101468.75
2023-02-22T17:26:47.383Z,101472.69
2023-02-22T17:30:48.060Z,101468.24
2023-02-22T17:34:55.626Z,101469.40
2023-02-22T17:38:30.481Z,101468.84
2023-02-22T17:42:40.092Z,101468.95
2023-02-22T17:46:49.708Z,101468.77
2023-02-22T17:50:35.501Z,101474.07
2023-02-22T17:54:45.097Z,101473.67
2023-02-22T17:58:37.838Z,101466.82
2023-02-22T18:02:47.452Z,101469.69
2023-02-22T18:06:41.297Z,101467.78
2023-02-22T18:10:44.863Z,101460.58
2023-02-22T18:14:39.192Z,101462.91
2023-02-22T18:18:28.535Z,101467.88
2023-02-22T18:22:14.398Z,101468.59
2023-02-22T18:26:16.413Z,101466.23
2023-02-22T18:30:26.230Z,101467.31
2023-02-22T18:34:35.885Z,101464.23
2023-02-22T18:38:35.984Z,101464.56
2023-02-22T18:42:25.773Z,101461.32
2023-02-22T18:46:35.353Z,101460.77
2023-02-22T18:50:38.041Z,101462.83
2023-02-22T18:54:47.697Z,101456.19
2023-02-22T18:58:49.655Z,101456.19
2023-02-22T19:02:42.374Z,101449.68
2023-02-22T19:06:52.730Z,101447.74
2023-02-22T19:11:02.335Z,101448.60
2023-02-22T19:15:12.053Z,101454.05
2023-02-22T19:19:23.568Z,101456.65
2023-02-22T19:23:35.627Z,101454.39
2023-02-22T19:27:45.191Z,101453.70
2023-02-22T19:31:55.100Z,101446.97
2023-02-22T19:36:04.710Z,101445.25
2023-02-22T19:39:49.785Z,101443.31
2023-02-22T19:43:52.263Z,101439.17
2023-02-22T19:48:01.397Z,101435.91
2023-02-22T19:52:06.268Z,101438.16
2023-02-22T19:56:15.704Z,101439.52
2023-02-22T20:00:08.098Z,101436.44
2023-02-22T20:04:00.864Z,101434.74
2023-02-22T20:08:00.820Z,101431.64
2023-02-22T20:11:53.884Z,101436.45
2023-02-22T20:15:43.550Z,101433.87
2023-02-22T20:19:45.773Z,101432.65
2023-02-22T20:23:45.412Z,101431.08
2023-02-22T20:27:55.084Z,101433.61
2023-02-22T20:32:05.015Z,101436.27
2023-02-22T20:36:05.321Z,101426.61
2023-02-22T20:40:14.812Z,101428.62
2023-02-22T20:44:19.852Z,101428.59
2023-02-22T20:48:29.486Z,101427.75
2023-02-22T20:52:37.627Z,101429.48
2023-02-22T20:56:53.216Z,101423.95
2023-02-22T21:00:55.593Z,101423.98
2023-02-22T21:05:04.271Z,101427.25
2023-02-22T21:09:05.564Z,101426.23
2023-02-22T21:13:07.997Z,101425.73
2023-02-22T21:17:20.491Z,101423.78
2023-02-22T21:21:30.064Z,101425.42
2023-02-22T21:25:29.606Z,101427.96
2023-02-22T21:29:39.103Z,101426.75
2023-02-22T21:33:48.623Z,101426.41
2023-02-22T21:37:37.001Z,101424.35
2023-02-22T21:41:47.618Z,101419.16
2023-02-22T21:45:46.153Z,101423.93
2023-02-22T21:49:54.675Z,101419.40
2023-02-22T21:54:04.275Z,101416.13
2023-02-22T21:57:57.258Z,101419.69
2023-02-22T22:02:05.154Z,101417.60
2023-02-22T22:06:10.179Z,101417.73
2023-02-22T22:10:19.360Z,101417.59
2023-02-22T22:14:17.609Z,101417.52
2023-02-22T22:18:05.576Z,101424.98
2023-02-22T22:22:15.109Z,101429.23
2023-02-22T22:26:24.890Z,101431.86
2023-02-22T22:30:27.907Z,101432.73
2023-02-22T22:34:37.474Z,101433.94
2023-02-22T22:38:38.781Z,101427.77
2023-02-22T22:42:28.044Z,101428.61
2023-02-22T22:46:40.194Z,101426.91
2023-02-22T22:50:49.116Z,101419.55
2023-02-22T22:54:58.526Z,101417.64
2023-02-22T22:59:08.132Z,101417.80
2023-02-22T23:03:17.614Z,101412.08
2023-02-22T23:07:26.082Z,101413.38
2023-02-22T23:11:35.593Z,101413.65
2023-02-22T23:15:45.238Z,101420.65
2023-02-22T23:19:54.800Z,101418.21
2023-02-22T23:24:04.265Z,101415.83
2023-02-22T23:27:53.580Z,101413.73
2023-02-22T23:32:02.145Z,101409.20
2023-02-22T23:36:11.692Z,101409.81
2023-02-22T23:40:21.136Z,101410.60
2023-02-22T23:44:23.567Z,101412.96
2023-02-22T23:48:35.796Z,101404.31
2023-02-22T23:52:45.401Z,101403.86
2023-02-22T23:56:51.091Z,101401.06
